createdAt,value
2018-02-01T00:02:18.782Z,29.52
2018-02-01T00:04:46.274Z,29.75
2018-02-01T00:07:13.683Z,29.72
2018-02-01T00:09:41.015Z,29.60
2018-02-01T00:12:08.408Z,29.44
2018-02-01T00:14:35.777Z,29.60
2018-02-01T00:17:03.174Z,29.56
2018-02-01T00:19:30.523Z,29.67
2018-02-01T00:21:57.897Z,29.65
2018-02-01T00:24:25.278Z,29.47
2018-02-01T00:26:52.721Z,29.60
2018-02-01T00:29:20.079Z,29.62
2018-02-01T00:31:47.583Z,29.46
2018-02-01T00:34:14.941Z,29.55
2018-02-01T00:36:42.410Z,29.69
2018-02-01T00:39:09.781Z,29.54
2018-02-01T00:41:37.145Z,29.65
2018-02-01T00:44:04.546Z,29.46
2018-02-01T00:46:31.897Z,29.57
2018-02-01T00:48:59.293Z,29.70
2018-02-01T00:51:26.683Z,29.61
2018-02-01T00:53:54.026Z,29.73
2018-02-01T00:56:21.418Z,29.78
2018-02-01T00:58:48.781Z,29.36
2018-02-01T01:01:16.194Z,29.70
2018-02-01T01:03:43.552Z,29.36
2018-02-01T01:06:10.959Z,29.46
2018-02-01T01:08:38.352Z,29.37
2018-02-01T01:11:05.761Z,29.45
2018-02-01T01:13:33.174Z,29.64
2018-02-01T01:16:00.563Z,29.61
2018-02-01T01:18:27.921Z,29.37
2018-02-01T01:20:55.299Z,29.66
2018-02-01T01:23:22.744Z,29.65
2018-02-01T01:25:50.241Z,29.73
2018-02-01T01:28:17.584Z,29.60
2018-02-01T01:30:45.014Z,29.78
2018-02-01T01:33:12.356Z,29.52
2018-02-01T01:35:39.703Z,29.59
2018-02-01T01:38:07.143Z,29.48
2018-02-01T01:40:34.555Z,29.57
2018-02-01T01:43:01.929Z,29.55
2018-02-01T01:45:29.378Z,29.50
2018-02-01T01:47:56.744Z,29.51
2018-02-01T01:50:24.134Z,29.67
2018-02-01T01:52:51.555Z,29.54
2018-02-01T01:55:18.890Z,29.46
2018-02-01T01:57:46.352Z,29.57
2018-02-01T02:00:13.750Z,29.53
2018-02-01T02:02:41.089Z,29.01
2018-02-01T02:05:08.466Z,29.15
2018-02-01T02:07:35.822Z,29.59
2018-02-01T02:10:03.259Z,29.42
2018-02-01T02:12:30.650Z,29.96
2018-02-01T02:14:58.065Z,29.82
2018-02-01T02:17:25.529Z,30.19
2018-02-01T02:19:52.938Z,30.40
2018-02-01T02:22:20.452Z,30.51
2018-02-01T02:24:47.949Z,30.67
2018-02-01T02:27:15.435Z,30.64
2018-02-01T02:29:42.872Z,30.84
2018-02-01T02:32:10.270Z,30.80
2018-02-01T02:34:37.678Z,30.67
2018-02-01T02:37:05.093Z,30.95
2018-02-01T02:39:32.547Z,30.78
2018-02-01T02:41:59.905Z,30.96
2018-02-01T02:44:27.338Z,31.00
2018-02-01T02:46:54.751Z,31.03
2018-02-01T02:49:22.130Z,31.06
2018-02-01T02:51:49.532Z,30.97
2018-02-01T02:54:17.204Z,31.09
2018-02-01T02:56:44.702Z,31.29
2018-02-01T02:59:12.135Z,31.23
2018-02-01T03:01:39.636Z,31.32
2018-02-01T03:04:07.021Z,31.48
2018-02-01T03:06:34.462Z,31.43
2018-02-01T03:09:01.822Z,31.48
2018-02-01T03:11:29.254Z,31.54
2018-02-01T03:13:56.961Z,31.50
2018-02-01T03:16:24.543Z,31.59
2018-02-01T03:18:52.018Z,31.63
2018-02-01T03:21:19.599Z,31.63
2018-02-01T03:23:46.992Z,31.65
2018-02-01T03:26:14.422Z,31.83
2018-02-01T03:28:41.853Z,31.90
2018-02-01T03:31:09.289Z,31.99
2018-02-01T03:33:36.649Z,31.85
2018-02-01T03:36:04.026Z,31.99
2018-02-01T03:38:31.378Z,31.97
2018-02-01T03:40:58.800Z,32.05
2018-02-01T03:43:26.241Z,31.92
2018-02-01T03:45:53.585Z,32.12
2018-02-01T03:48:20.977Z,31.84
2018-02-01T03:50:48.379Z,32.14
2018-02-01T03:53:15.768Z,32.17
2018-02-01T03:55:43.202Z,32.06
2018-02-01T03:58:10.618Z,32.06
2018-02-01T04:00:37.953Z,31.95
2018-02-01T04:03:05.334Z,32.08
2018-02-01T04:05:32.699Z,32.21
2018-02-01T04:08:00.077Z,32.13
2018-02-01T04:10:27.471Z,32.03
2018-02-01T04:12:54.826Z,32.01
2018-02-01T04:15:22.209Z,31.94
2018-02-01T04:17:49.600Z,32.06
2018-02-01T04:20:16.981Z,31.95
2018-02-01T04:22:44.411Z,31.69
2018-02-01T04:25:11.791Z,31.65
2018-02-01T04:27:39.185Z,31.46
2018-02-01T04:30:06.574Z,31.47
2018-02-01T04:32:33.913Z,31.57
2018-02-01T04:35:01.306Z,31.58
2018-02-01T04:37:28.734Z,31.53
2018-02-01T04:39:56.166Z,31.53
2018-02-01T04:42:23.551Z,31.48
2018-02-01T04:44:50.944Z,31.42
2018-02-01T04:47:18.373Z,31.45
2018-02-01T04:49:45.811Z,31.58
2018-02-01T04:52:13.282Z,31.38
2018-02-01T04:54:40.677Z,31.63
2018-02-01T04:57:08.092Z,31.60
2018-02-01T04:59:35.525Z,31.67
2018-02-01T05:02:03.016Z,31.47
2018-02-01T05:04:30.426Z,31.41
2018-02-01T05:06:57.915Z,31.59
2018-02-01T05:09:25.313Z,31.66
2018-02-01T05:11:52.774Z,31.58
2018-02-01T05:14:20.169Z,31.46
2018-02-01T05:16:47.563Z,31.55
2018-02-01T05:19:15.008Z,31.66
2018-02-01T05:21:42.430Z,31.65
2018-02-01T05:24:09.865Z,31.57
2018-02-01T05:26:37.267Z,31.76
2018-02-01T05:29:04.723Z,31.69
2018-02-01T05:31:32.153Z,31.67
2018-02-01T05:33:59.586Z,31.67
2018-02-01T05:36:26.975Z,31.77
2018-02-01T05:38:54.487Z,31.79
2018-02-01T05:41:21.923Z,31.80
2018-02-01T05:43:49.313Z,31.79
2018-02-01T05:46:16.771Z,31.81
2018-02-01T05:48:44.228Z,31.78
2018-02-01T05:51:11.672Z,31.41
2018-02-01T05:53:39.084Z,31.56
2018-02-01T05:56:06.569Z,31.66
2018-02-01T05:58:33.938Z,31.39
2018-02-01T06:01:01.368Z,31.21
2018-02-01T06:03:28.767Z,31.64
2018-02-01T06:05:56.262Z,31.23
2018-02-01T06:08:23.642Z,31.15
2018-02-01T06:10:51.014Z,31.39
2018-02-01T06:13:18.422Z,31.13
2018-02-01T06:15:45.803Z,31.26
2018-02-01T06:18:13.263Z,31.31
2018-02-01T06:20:40.695Z,31.23
2018-02-01T06:23:08.088Z,31.27
2018-02-01T06:25:35.526Z,31.37
2018-02-01T06:28:03.012Z,31.15
2018-02-01T06:30:30.481Z,31.61
2018-02-01T06:32:57.879Z,31.22
2018-02-01T06:35:25.408Z,31.08
2018-02-01T06:37:53.084Z,31.47
2018-02-01T06:40:21.637Z,31.07
2018-02-01T06:42:49.073Z,31.01
2018-02-01T06:45:16.570Z,30.91
2018-02-01T06:47:44.048Z,30.77
2018-02-01T06:50:11.695Z,30.67
2018-02-01T06:52:39.120Z,30.83
2018-02-01T06:55:06.965Z,30.74
2018-02-01T06:57:34.506Z,30.83
2018-02-01T07:00:02.219Z,30.52
2018-02-01T07:02:29.654Z,30.41
2018-02-01T07:04:57.072Z,30.50
2018-02-01T07:07:24.789Z,30.79
2018-02-01T07:09:52.597Z,30.42
2018-02-01T07:12:20.324Z,30.31
2018-02-01T07:14:47.832Z,30.52
2018-02-01T07:17:23.979Z,30.45
2018-02-01T07:19:51.463Z,30.34
2018-02-01T07:22:19.010Z,30.46
2018-02-01T07:24:47.256Z,30.55
2018-02-01T07:27:14.796Z,30.33
2018-02-01T07:29:42.675Z,30.23
2018-02-01T07:32:11.690Z,29.97
2018-02-01T07:34:41.476Z,30.01
2018-02-01T07:37:09.195Z,30.04
2018-02-01T07:39:36.719Z,30.06
2018-02-01T07:42:05.505Z,30.11
2018-02-01T07:44:33.411Z,30.30
2018-02-01T07:47:00.857Z,30.05
2018-02-01T07:49:28.226Z,30.44
2018-02-01T07:51:55.612Z,30.46
2018-02-01T07:54:23.072Z,30.25
2018-02-01T07:56:50.548Z,30.42
2018-02-01T07:59:17.915Z,30.42
2018-02-01T08:01:46.282Z,30.38
2018-02-01T08:04:13.810Z,30.17
2018-02-01T08:06:41.254Z,30.58
2018-02-01T08:09:08.701Z,30.28
2018-02-01T08:11:36.105Z,30.13
2018-02-01T08:14:03.542Z,30.14
2018-02-01T08:16:30.978Z,30.09
2018-02-01T08:18:58.395Z,30.48
2018-02-01T08:21:25.899Z,30.08
2018-02-01T08:23:53.347Z,30.18
2018-02-01T08:26:20.956Z,29.99
2018-02-01T08:28:48.500Z,30.05
2018-02-01T08:31:16.027Z,31.04
2018-02-01T08:33:43.470Z,30.00
2018-02-01T08:36:10.950Z,30.17
2018-02-01T08:38:38.398Z,30.16
2018-02-01T08:41:05.911Z,30.14
2018-02-01T08:43:33.366Z,30.08
2018-02-01T08:46:00.812Z,30.11
2018-02-01T08:48:28.253Z,30.02
2018-02-01T08:50:55.660Z,29.88
2018-02-01T08:53:23.078Z,29.90
2018-02-01T08:55:50.504Z,30.09
2018-02-01T08:58:17.998Z,30.00
2018-02-01T09:00:45.454Z,30.12
2018-02-01T09:03:12.964Z,29.82
2018-02-01T09:05:40.451Z,29.87
2018-02-01T09:08:07.896Z,29.97
2018-02-01T09:10:35.410Z,30.19
2018-02-01T09:13:02.840Z,30.26
2018-02-01T09:15:30.296Z,30.70
2018-02-01T09:17:57.763Z,30.32
2018-02-01T09:20:25.202Z,30.30
2018-02-01T09:22:52.750Z,30.54
2018-02-01T09:25:20.775Z,30.37
2018-02-01T09:27:48.365Z,30.75
2018-02-01T09:30:15.790Z,31.63
2018-02-01T09:32:43.600Z,31.10
2018-02-01T09:35:11.028Z,30.51
2018-02-01T09:37:38.582Z,30.33
2018-02-01T09:40:06.024Z,30.57
2018-02-01T09:42:33.547Z,30.78
2018-02-01T09:45:01.049Z,30.55
2018-02-01T09:47:28.503Z,31.14
2018-02-01T09:49:56.091Z,30.80
2018-02-01T09:52:23.583Z,30.11
2018-02-01T09:54:51.124Z,30.49
2018-02-01T09:57:18.725Z,30.86
2018-02-01T09:59:46.678Z,30.14
2018-02-01T10:02:15.850Z,30.94
2018-02-01T10:04:45.328Z,30.22
2018-02-01T10:07:12.941Z,29.89
2018-02-01T10:09:40.655Z,29.81
2018-02-01T10:12:08.095Z,30.57
2018-02-01T10:14:35.522Z,30.24
2018-02-01T10:17:03.094Z,29.85
2018-02-01T10:19:30.535Z,30.24
2018-02-01T10:21:57.962Z,30.13
2018-02-01T10:24:25.453Z,30.21
2018-02-01T10:26:52.988Z,29.95
2018-02-01T10:29:20.397Z,29.94
2018-02-01T10:31:47.832Z,30.33
2018-02-01T10:34:15.274Z,30.19
2018-02-01T10:36:42.666Z,30.09
2018-02-01T10:39:10.146Z,30.17
2018-02-01T10:41:37.584Z,29.86
2018-02-01T10:44:05.034Z,29.99
2018-02-01T10:46:33.219Z,29.93
2018-02-01T10:49:00.696Z,29.97
2018-02-01T10:51:28.696Z,29.99
2018-02-01T10:53:56.216Z,30.13
2018-02-01T10:56:23.737Z,30.05
2018-02-01T10:58:51.315Z,30.19
2018-02-01T11:01:20.532Z,30.59
2018-02-01T11:03:48.098Z,30.10
2018-02-01T11:06:15.573Z,30.82
2018-02-01T11:08:43.219Z,30.07
2018-02-01T11:11:10.890Z,31.05
2018-02-01T11:13:38.492Z,30.44
2018-02-01T11:16:05.930Z,30.51
2018-02-01T11:18:33.659Z,30.68
2018-02-01T11:21:01.130Z,30.84
2018-02-01T11:23:28.648Z,30.47
2018-02-01T11:25:56.148Z,30.82
2018-02-01T11:28:23.685Z,31.21
2018-02-01T11:30:52.194Z,30.49
2018-02-01T11:33:19.854Z,30.48
2018-02-01T11:35:47.314Z,31.11
2018-02-01T11:38:14.748Z,30.67
2018-02-01T11:40:42.282Z,30.78
2018-02-01T11:43:09.749Z,31.00
2018-02-01T11:45:37.221Z,30.32
2018-02-01T11:48:04.616Z,30.73
2018-02-01T11:50:32.066Z,31.31
2018-02-01T11:52:59.541Z,31.00
2018-02-01T11:55:27.040Z,31.57
2018-02-01T11:57:54.454Z,30.61
2018-02-01T12:00:21.860Z,30.75
2018-02-01T12:02:49.400Z,31.00
2018-02-01T12:05:16.905Z,31.31
2018-02-01T12:07:44.415Z,30.86
2018-02-01T12:10:11.945Z,31.46
2018-02-01T12:12:39.512Z,31.13
2018-02-01T12:15:06.956Z,30.93
2018-02-01T12:17:34.354Z,31.04
2018-02-01T12:20:01.806Z,31.37
2018-02-01T12:22:29.202Z,31.36
2018-02-01T12:24:56.665Z,31.09
2018-02-01T12:27:24.235Z,31.17
2018-02-01T12:29:51.665Z,31.32
2018-02-01T12:32:19.099Z,31.36
2018-02-01T12:34:46.485Z,31.21
2018-02-01T12:37:13.941Z,30.99
2018-02-01T12:39:41.362Z,31.04
2018-02-01T12:42:09.359Z,31.18
2018-02-01T12:44:36.781Z,31.63
2018-02-01T12:47:04.215Z,31.13
2018-02-01T12:49:31.582Z,31.25
2018-02-01T12:51:59.120Z,30.90
2018-02-01T12:54:26.578Z,30.94
2018-02-01T12:56:54.035Z,30.88
2018-02-01T12:59:21.448Z,30.95
2018-02-01T13:01:48.838Z,31.23
2018-02-01T13:04:16.389Z,30.97
2018-02-01T13:06:43.888Z,30.93
2018-02-01T13:09:11.302Z,30.82
2018-02-01T13:11:38.932Z,30.78
2018-02-01T13:14:06.765Z,30.75
2018-02-01T13:16:34.343Z,30.78
2018-02-01T13:19:01.805Z,30.88
2018-02-01T13:21:29.232Z,30.66
2018-02-01T13:23:58.100Z,30.70
2018-02-01T13:26:25.591Z,30.77
2018-02-01T13:28:53.065Z,30.98
2018-02-01T13:31:20.488Z,30.87
2018-02-01T13:33:47.926Z,30.55
2018-02-01T13:36:15.413Z,30.73
2018-02-01T13:38:42.805Z,30.65
2018-02-01T13:41:10.277Z,30.64
2018-02-01T13:43:37.686Z,30.46
2018-02-01T13:46:05.162Z,30.57
2018-02-01T13:48:32.686Z,30.68
2018-02-01T13:51:00.095Z,30.48
2018-02-01T13:53:27.555Z,30.46
2018-02-01T13:55:55.054Z,30.48
2018-02-01T13:58:22.580Z,30.44
2018-02-01T14:00:50.035Z,29.88
2018-02-01T14:03:17.461Z,29.71
2018-02-01T14:05:44.851Z,29.99
2018-02-01T14:08:12.428Z,29.99
2018-02-01T14:10:39.902Z,29.78
2018-02-01T14:13:07.452Z,29.47
2018-02-01T14:15:34.841Z,29.55
2018-02-01T14:18:02.481Z,29.68
2018-02-01T14:20:29.924Z,29.43
2018-02-01T14:22:57.323Z,29.53
2018-02-01T14:25:24.786Z,29.35
2018-02-01T14:27:52.255Z,28.81
2018-02-01T14:30:19.876Z,28.60
2018-02-01T14:32:47.337Z,28.88
2018-02-01T14:35:14.871Z,28.87
2018-02-01T14:37:42.295Z,29.14
2018-02-01T14:40:09.769Z,28.58
2018-02-01T14:42:37.274Z,29.32
2018-02-01T14:45:05.108Z,28.89
2018-02-01T14:47:32.511Z,29.23
2018-02-01T14:50:00.200Z,28.40
2018-02-01T14:52:47.860Z,29.02
2018-02-01T14:55:15.304Z,28.98
2018-02-01T14:57:42.748Z,28.82
2018-02-01T15:00:10.197Z,28.96
2018-02-01T15:02:37.682Z,29.04
2018-02-01T15:05:05.134Z,28.63
2018-02-01T15:07:32.567Z,28.77
2018-02-01T15:09:59.963Z,28.42
2018-02-01T15:12:28.475Z,28.63
2018-02-01T15:14:55.890Z,28.54
2018-02-01T15:17:23.365Z,28.47
2018-02-01T15:19:50.816Z,28.83
2018-02-01T15:22:18.283Z,28.65
2018-02-01T15:24:45.712Z,28.29
2018-02-01T15:27:13.141Z,28.14
2018-02-01T15:29:40.538Z,28.19
2018-02-01T15:32:07.974Z,28.06
2018-02-01T15:34:35.364Z,27.88
2018-02-01T15:37:02.805Z,28.23
2018-02-01T15:39:30.198Z,27.91
2018-02-01T15:41:57.619Z,27.71
2018-02-01T15:44:26.073Z,27.85
2018-02-01T15:46:53.519Z,27.94
2018-02-01T15:49:20.941Z,27.58
2018-02-01T15:51:48.350Z,27.77
2018-02-01T15:54:15.793Z,27.80
2018-02-01T15:56:43.269Z,27.30
2018-02-01T15:59:10.786Z,27.90
2018-02-01T16:01:38.183Z,27.73
2018-02-01T16:04:05.668Z,27.71
2018-02-01T16:06:33.035Z,27.66
2018-02-01T16:09:00.420Z,27.64
2018-02-01T16:11:27.885Z,27.67
2018-02-01T16:13:55.408Z,27.82
2018-02-01T16:16:22.848Z,27.16
2018-02-01T16:18:50.380Z,27.45
2018-02-01T16:21:17.807Z,27.25
2018-02-01T16:23:45.238Z,27.46
2018-02-01T16:26:12.757Z,27.62
2018-02-01T16:28:40.194Z,27.24
2018-02-01T16:31:07.584Z,27.17
2018-02-01T16:33:35.113Z,27.21
2018-02-01T16:36:02.590Z,27.15
2018-02-01T16:38:30.018Z,27.04
2018-02-01T16:40:57.459Z,27.34
2018-02-01T16:43:24.852Z,26.96
2018-02-01T16:45:52.286Z,26.96
2018-02-01T16:48:19.757Z,26.76
2018-02-01T16:50:47.143Z,26.85
2018-02-01T16:53:14.555Z,26.87
2018-02-01T16:55:42.008Z,26.85
2018-02-01T16:58:09.408Z,26.55
2018-02-01T17:00:36.788Z,26.55
2018-02-01T17:03:04.244Z,26.47
2018-02-01T17:05:31.663Z,26.73
2018-02-01T17:07:59.063Z,26.47
2018-02-01T17:10:26.430Z,26.42
2018-02-01T17:12:53.900Z,26.28
2018-02-01T17:15:21.340Z,26.44
2018-02-01T17:17:48.709Z,26.18
2018-02-01T17:20:16.123Z,26.27
2018-02-01T17:22:43.558Z,26.31
2018-02-01T17:25:10.939Z,26.47
2018-02-01T17:27:38.364Z,26.69
2018-02-01T17:30:05.819Z,26.45
2018-02-01T17:32:33.218Z,26.54
2018-02-01T17:35:00.622Z,26.69
2018-02-01T17:37:27.989Z,26.33
2018-02-01T17:39:55.450Z,26.16
2018-02-01T17:42:22.841Z,26.43
2018-02-01T17:44:50.297Z,26.19
2018-02-01T17:47:17.733Z,26.41
2018-02-01T17:49:45.120Z,26.20
2018-02-01T17:52:12.573Z,26.01
2018-02-01T17:54:39.971Z,26.05
2018-02-01T17:57:07.334Z,26.09
2018-02-01T17:59:34.783Z,26.00
2018-02-01T18:02:02.191Z,26.42
2018-02-01T18:04:29.602Z,26.43
2018-02-01T18:06:57.035Z,26.67
2018-02-01T18:09:24.467Z,26.62
2018-02-01T18:11:51.933Z,26.67
2018-02-01T18:14:19.322Z,26.49
2018-02-01T18:16:46.756Z,26.57
2018-02-01T18:19:14.196Z,26.75
2018-02-01T18:21:41.619Z,26.78
2018-02-01T18:24:09.044Z,26.72
2018-02-01T18:26:36.494Z,26.78
2018-02-01T18:29:03.937Z,26.73
2018-02-01T18:31:31.369Z,26.82
2018-02-01T18:33:58.749Z,26.80
2018-02-01T18:36:26.156Z,26.76
2018-02-01T18:38:53.568Z,26.76
2018-02-01T18:41:20.986Z,26.73
2018-02-01T18:43:48.425Z,26.82
2018-02-01T18:46:15.853Z,26.79
2018-02-01T18:48:43.278Z,26.88
2018-02-01T18:51:10.659Z,26.86
2018-02-01T18:53:38.094Z,26.85
2018-02-01T18:56:05.529Z,26.82
2018-02-01T18:58:32.993Z,26.83
2018-02-01T19:01:00.414Z,26.89
2018-02-01T19:03:27.779Z,26.81
2018-02-01T19:05:55.239Z,26.86
2018-02-01T19:08:22.686Z,26.81
2018-02-01T19:10:50.124Z,26.92
2018-02-01T19:13:17.518Z,26.93
2018-02-01T19:15:44.909Z,26.84
2018-02-01T19:18:12.304Z,26.89
2018-02-01T19:20:39.741Z,27.04
2018-02-01T19:23:07.229Z,26.95
2018-02-01T19:25:34.675Z,27.04
2018-02-01T19:28:02.087Z,26.99
2018-02-01T19:30:29.549Z,27.03
2018-02-01T19:32:56.953Z,27.07
2018-02-01T19:35:24.386Z,26.97
2018-02-01T19:37:51.844Z,26.94
2018-02-01T19:40:19.297Z,27.00
2018-02-01T19:42:46.715Z,27.01
2018-02-01T19:45:14.179Z,27.07
2018-02-01T19:47:41.572Z,27.07
2018-02-01T19:50:09.029Z,27.03
2018-02-01T19:52:36.472Z,27.04
2018-02-01T19:55:03.973Z,27.10
2018-02-01T20:00:24.261Z,27.21
2018-02-01T20:02:51.695Z,27.25
2018-02-01T20:05:19.176Z,27.17
2018-02-01T20:07:46.602Z,27.21
2018-02-01T20:10:14.026Z,27.12
2018-02-01T20:12:41.463Z,27.17
2018-02-01T20:15:08.913Z,27.44
2018-02-01T20:17:36.411Z,27.41
2018-02-01T20:20:03.803Z,27.50
2018-02-01T20:22:31.271Z,27.43
2018-02-01T20:24:58.654Z,27.55
2018-02-01T20:27:26.195Z,27.79
2018-02-01T20:29:53.645Z,27.58
2018-02-01T20:32:21.124Z,27.65
2018-02-01T20:34:48.518Z,27.87
2018-02-01T20:37:16.005Z,27.81
2018-02-01T20:39:43.462Z,27.73
2018-02-01T20:42:10.901Z,27.90
2018-02-01T20:44:38.363Z,27.81
2018-02-01T20:47:05.794Z,27.87
2018-02-01T20:49:33.232Z,27.90
2018-02-01T20:52:00.632Z,27.98
2018-02-01T20:54:28.076Z,27.97
2018-02-01T20:56:55.612Z,27.87
2018-02-01T20:59:23.053Z,27.88
2018-02-01T21:01:50.428Z,27.76
2018-02-01T21:04:17.875Z,27.76
2018-02-01T21:06:45.320Z,27.80
2018-02-01T21:09:12.755Z,27.92
2018-02-01T21:11:40.175Z,27.77
2018-02-01T21:14:07.903Z,27.83
2018-02-01T21:16:35.353Z,27.79
2018-02-01T21:19:02.725Z,27.71
2018-02-01T21:21:30.175Z,27.87
2018-02-01T21:23:57.605Z,27.85
2018-02-01T21:26:25.063Z,27.96
2018-02-01T21:28:52.495Z,27.89
2018-02-01T21:31:19.936Z,27.91
2018-02-01T21:33:47.358Z,28.00
2018-02-01T21:36:14.748Z,28.09
2018-02-01T21:38:42.168Z,28.01
2018-02-01T21:41:09.623Z,28.04
2018-02-01T21:43:37.002Z,27.98
2018-02-01T21:46:04.436Z,28.07
2018-02-01T21:48:31.814Z,28.02
2018-02-01T21:50:59.178Z,28.00
2018-02-01T21:53:26.585Z,28.02
2018-02-01T21:55:53.954Z,27.93
2018-02-01T21:58:21.361Z,27.96
2018-02-01T22:00:48.812Z,28.10
2018-02-01T22:03:16.242Z,27.97
2018-02-01T22:05:43.650Z,28.10
2018-02-01T22:08:11.014Z,27.97
2018-02-01T22:10:38.438Z,28.08
2018-02-01T22:13:05.793Z,28.13
2018-02-01T22:15:33.202Z,28.09
2018-02-01T22:18:00.577Z,28.05
2018-02-01T22:20:27.999Z,28.08
2018-02-01T22:22:55.363Z,28.10
2018-02-01T22:25:22.726Z,28.09
2018-02-01T22:27:50.180Z,28.11
2018-02-01T22:30:17.607Z,28.08
2018-02-01T22:32:45.026Z,28.18
2018-02-01T22:35:12.459Z,28.17
2018-02-01T22:37:39.870Z,28.14
2018-02-01T22:40:07.231Z,28.16
2018-02-01T22:42:34.627Z,28.09
2018-02-01T22:45:01.983Z,28.10
2018-02-01T22:47:29.386Z,28.04
2018-02-01T22:49:56.821Z,28.19
2018-02-01T22:52:24.231Z,28.05
2018-02-01T22:54:51.609Z,28.12
2018-02-01T22:57:19.049Z,28.19
2018-02-01T22:59:46.426Z,28.20
2018-02-01T23:02:13.794Z,28.30
2018-02-01T23:04:41.237Z,28.22
2018-02-01T23:07:08.603Z,28.14
2018-02-01T23:09:35.995Z,28.21
2018-02-01T23:12:03.370Z,28.17
2018-02-01T23:14:30.794Z,28.37
2018-02-01T23:16:58.199Z,28.25
2018-02-01T23:19:25.618Z,28.29
2018-02-01T23:21:53.026Z,28.34
2018-02-01T23:24:20.405Z,28.17
2018-02-01T23:26:47.844Z,28.24
2018-02-01T23:29:15.298Z,28.36
2018-02-01T23:31:42.793Z,28.32
2018-02-01T23:34:10.171Z,28.24
2018-02-01T23:36:37.574Z,28.32
2018-02-01T23:39:05.014Z,28.29
2018-02-01T23:41:32.407Z,28.29
2018-02-01T23:43:59.826Z,28.34
2018-02-01T23:46:27.238Z,28.37
2018-02-01T23:48:54.649Z,28.34
2018-02-01T23:51:22.018Z,28.42
2018-02-01T23:53:49.410Z,28.44
2018-02-01T23:56:16.801Z,28.34
2018-02-01T23:58:44.215Z,28.46
